Trident — WDF5944 — position and weather

sailwx.info

Track history (hours):
 
Tides and Currents Weather Stations Pressure Air Temp Water Temp Dewpoint Dewpoint Depression Visibility Wind Speed Wind Dir Waves Ship Positions

Trident

Owner: Marquette Transportation Company Offshore, LLC, Jefferson, LA. More information available from US FCC via Universal Licensing System and Coast Guard Vessel Documentation Center.

Last reported at 2017-Oct-13 08:42 UTC. Time now 2017-Nov-24 21:03 UTC.
Position N 24°28' W 081°20'.
Warning: this ship's position is 42 days out of date.

Length 24 m; draft 3 m.

Type: Towing. MMSI: 367468960.

Date/timePositionNaut miles runAvg speedWind from/ knotsBaromVisibWave heightAir tempDewpointWater temp
2017-Oct-13 08:42N 24°28' W 081°20'1 6.6
2017-Oct-13 08:30N 24°29' W 081°19'3 6.6
2017-Oct-13 08:00N 24°30' W 081°15'90 5.3
2017-Oct-12 14:52N 25°32' W 080°03'2 4.2
2017-Oct-12 14:29N 25°34' W 080°03'2 4.1
2017-Oct-12 13:59N 25°36' W 080°03'2 4.0
2017-Oct-12 13:30N 25°37' W 080°02'2 3.9
2017-Oct-12 13:00N 25°39' W 080°03'2 4.3
2017-Oct-12 12:30N 25°42' W 080°03'2 4.7
2017-Oct-12 12:00N 25°44' W 080°03'3 6.3
2017-Oct-12 11:30N 25°47' W 080°03'3 6.8
2017-Oct-12 11:00N 25°50' W 080°03'4 7.1
2017-Oct-12 10:30N 25°54' W 080°03'3 5.9
2017-Oct-12 10:00N 25°57' W 080°03'3 5.4
2017-Oct-12 09:30N 25°60' W 080°03'3 5.2
2017-Oct-12 09:00N 26°02' W 080°03'3 5.2
2017-Oct-12 08:30N 26°05' W 080°03'3 5.2
2017-Oct-12 08:00N 26°07' W 080°03'3 5.2
2017-Oct-12 07:30N 26°10' W 080°03'3 5.1
2017-Oct-12 07:00N 26°12' W 080°02'3 5.2
2017-Oct-12 06:30N 26°15' W 080°02'3 5.1
2017-Oct-12 05:59N 26°18' W 080°02'2 4.9
2017-Oct-12 05:29N 26°20' W 080°01'2 4.9
2017-Oct-12 05:00N 26°22' W 080°01'3 4.9
2017-Oct-12 04:29N 26°25' W 080°01'3 4.9
2017-Oct-12 03:57N 26°28' W 080°00'25 4.7
2017-Oct-11 22:38N 26°53' W 079°59'1 5.5
2017-Oct-11 22:30N 26°53' W 079°59'3 5.7
2017-Oct-11 22:00N 26°56' W 079°59'3 5.8
2017-Oct-11 21:30N 26°59' W 079°59'3 5.5
2017-Oct-11 21:00N 27°02' W 079°59'  
2017-Oct-06 14:28N 38°21' W 074°41'6 7.0
2017-Oct-06 13:38N 38°26' W 074°38'1 6.8
2017-Oct-06 13:30N 38°27' W 074°38'4 7.0
2017-Oct-06 12:59N 38°31' W 074°36'3 6.9
2017-Oct-06 12:30N 38°34' W 074°34'3 6.8
2017-Oct-06 12:00N 38°37' W 074°33'4 6.7
2017-Oct-06 11:27N 38°40' W 074°31'4 6.9
2017-Oct-06 10:55N 38°44' W 074°29'5 6.8
2017-Oct-06 10:11N 38°48' W 074°27'3 6.9
2017-Oct-06 09:48N 38°51' W 074°25'2 6.9
2017-Oct-06 09:30N 38°53' W 074°24'4 7.0
2017-Oct-06 08:56N 38°56' W 074°22'3 7.0
2017-Oct-06 08:30N 38°59' W 074°20'4 7.1
2017-Oct-06 07:59N 39°02' W 074°18'4 7.1
2017-Oct-06 07:24N 39°06' W 074°16'4 7.0
2017-Oct-06 06:52N 39°09' W 074°14'24 7.0
2017-Oct-06 03:25N 39°32' W 074°03'3 6.8
2017-Oct-06 03:00N 39°35' W 074°02'3 6.4
2017-Oct-06 02:29N 39°38' W 074°00'3 6.3
2017-Oct-06 02:00N 39°41' W 073°59'3 6.1
2017-Oct-06 01:26N 39°43' W 073°56'3 6.0
2017-Oct-06 01:00N 39°45' W 073°54'5 5.7
2017-Oct-06 00:07N 39°49' W 073°49'1 5.5
2017-Oct-06 00:01N 39°49' W 073°48'59 5.7
2017-Oct-05 13:37N 40°34' W 072°59'1 5.2
2017-Oct-05 13:30N 40°35' W 072°58'99 4.5
2017-Oct-04 15:39N 41°39' W 071°19'1 7.8
2017-Oct-04 15:30N 41°40' W 071°19'4 7.3
2017-Oct-04 14:58N 41°43' W 071°21'4 0.3
2017-Oct-04 02:06N 41°48' W 071°23'3 6.9
2017-Oct-04 01:42N 41°45' W 071°22'1 6.8
2017-Oct-04 01:30N 41°44' W 071°22'3 6.6
2017-Oct-04 01:00N 41°41' W 071°19'4 7.3
2017-Oct-04 00:30N 41°37' W 071°18'5 1.7
2017-Oct-03 21:42N 41°37' W 071°24'0 0.7
2017-Oct-03 21:20N 41°37' W 071°24'  
Track history (hours):
 
Tides and Currents Weather Stations Pressure Air Temp Water Temp Dewpoint Dewpoint Depression Visibility Wind Speed Wind Dir Waves Ship Positions

Trident

Owner: Marquette Transportation Company Offshore, LLC, Jefferson, LA. More information available from US FCC via Universal Licensing System and Coast Guard Vessel Documentation Center.

Last reported at 2017-Oct-13 08:42 UTC. Time now 2017-Nov-24 21:03 UTC.
Position N 24°28' W 081°20'.
Warning: this ship's position is 42 days out of date.

Length 24 m; draft 3 m.

Type: Towing. MMSI: 367468960.

Date/timePositionNaut miles runAvg speedWind from/ knotsBaromVisibWave heightAir tempDewpointWater temp
2017-Oct-13 08:42N 24°28' W 081°20'1 6.6
2017-Oct-13 08:30N 24°29' W 081°19'3 6.6
2017-Oct-13 08:00N 24°30' W 081°15'90 5.3
2017-Oct-12 14:52N 25°32' W 080°03'2 4.2
2017-Oct-12 14:29N 25°34' W 080°03'2 4.1
2017-Oct-12 13:59N 25°36' W 080°03'2 4.0
2017-Oct-12 13:30N 25°37' W 080°02'2 3.9
2017-Oct-12 13:00N 25°39' W 080°03'2 4.3
2017-Oct-12 12:30N 25°42' W 080°03'2 4.7
2017-Oct-12 12:00N 25°44' W 080°03'3 6.3
2017-Oct-12 11:30N 25°47' W 080°03'3 6.8
2017-Oct-12 11:00N 25°50' W 080°03'4 7.1
2017-Oct-12 10:30N 25°54' W 080°03'3 5.9
2017-Oct-12 10:00N 25°57' W 080°03'3 5.4
2017-Oct-12 09:30N 25°60' W 080°03'3 5.2
2017-Oct-12 09:00N 26°02' W 080°03'3 5.2
2017-Oct-12 08:30N 26°05' W 080°03'3 5.2
2017-Oct-12 08:00N 26°07' W 080°03'3 5.2
2017-Oct-12 07:30N 26°10' W 080°03'3 5.1
2017-Oct-12 07:00N 26°12' W 080°02'3 5.2
2017-Oct-12 06:30N 26°15' W 080°02'3 5.1
2017-Oct-12 05:59N 26°18' W 080°02'2 4.9
2017-Oct-12 05:29N 26°20' W 080°01'2 4.9
2017-Oct-12 05:00N 26°22' W 080°01'3 4.9
2017-Oct-12 04:29N 26°25' W 080°01'3 4.9
2017-Oct-12 03:57N 26°28' W 080°00'25 4.7
2017-Oct-11 22:38N 26°53' W 079°59'1 5.5
2017-Oct-11 22:30N 26°53' W 079°59'3 5.7
2017-Oct-11 22:00N 26°56' W 079°59'3 5.8
2017-Oct-11 21:30N 26°59' W 079°59'3 5.5
2017-Oct-11 21:00N 27°02' W 079°59'  
2017-Oct-06 14:28N 38°21' W 074°41'6 7.0
2017-Oct-06 13:38N 38°26' W 074°38'1 6.8
2017-Oct-06 13:30N 38°27' W 074°38'4 7.0
2017-Oct-06 12:59N 38°31' W 074°36'3 6.9
2017-Oct-06 12:30N 38°34' W 074°34'3 6.8
2017-Oct-06 12:00N 38°37' W 074°33'4 6.7
2017-Oct-06 11:27N 38°40' W 074°31'4 6.9
2017-Oct-06 10:55N 38°44' W 074°29'5 6.8
2017-Oct-06 10:11N 38°48' W 074°27'3 6.9
2017-Oct-06 09:48N 38°51' W 074°25'2 6.9
2017-Oct-06 09:30N 38°53' W 074°24'4 7.0
2017-Oct-06 08:56N 38°56' W 074°22'3 7.0
2017-Oct-06 08:30N 38°59' W 074°20'4 7.1
2017-Oct-06 07:59N 39°02' W 074°18'4 7.1
2017-Oct-06 07:24N 39°06' W 074°16'4 7.0
2017-Oct-06 06:52N 39°09' W 074°14'24 7.0
2017-Oct-06 03:25N 39°32' W 074°03'3 6.8
2017-Oct-06 03:00N 39°35' W 074°02'3 6.4
2017-Oct-06 02:29N 39°38' W 074°00'3 6.3
2017-Oct-06 02:00N 39°41' W 073°59'3 6.1
2017-Oct-06 01:26N 39°43' W 073°56'3 6.0
2017-Oct-06 01:00N 39°45' W 073°54'5 5.7
2017-Oct-06 00:07N 39°49' W 073°49'1 5.5
2017-Oct-06 00:01N 39°49' W 073°48'59 5.7
2017-Oct-05 13:37N 40°34' W 072°59'1 5.2
2017-Oct-05 13:30N 40°35' W 072°58'99 4.5
2017-Oct-04 15:39N 41°39' W 071°19'1 7.8
2017-Oct-04 15:30N 41°40' W 071°19'4 7.3
2017-Oct-04 14:58N 41°43' W 071°21'4 0.3
2017-Oct-04 02:06N 41°48' W 071°23'3 6.9
2017-Oct-04 01:42N 41°45' W 071°22'1 6.8
2017-Oct-04 01:30N 41°44' W 071°22'3 6.6
2017-Oct-04 01:00N 41°41' W 071°19'4 7.3
2017-Oct-04 00:30N 41°37' W 071°18'5 1.7
2017-Oct-03 21:42N 41°37' W 071°24'0 0.7
2017-Oct-03 21:20N 41°37' W 071°24'  

Dump ship's entire track history